createdAt,value
2018-09-22T00:00:17.652Z,55.70
2018-09-22T00:02:48.538Z,55.47
2018-09-22T00:05:19.479Z,55.45
2018-09-22T00:07:50.441Z,55.98
2018-09-22T00:10:21.484Z,55.77
2018-09-22T00:12:52.477Z,55.93
2018-09-22T00:15:23.515Z,55.00
2018-09-22T00:17:54.468Z,56.07
2018-09-22T00:20:25.489Z,54.93
2018-09-22T00:22:56.481Z,55.72
2018-09-22T00:25:27.495Z,55.75
2018-09-22T00:27:58.553Z,55.48
2018-09-22T00:30:29.489Z,56.35
2018-09-22T00:33:00.804Z,55.96
2018-09-22T00:35:31.573Z,56.18
2018-09-22T00:38:02.496Z,56.06
2018-09-22T00:40:33.472Z,56.32
2018-09-22T00:43:04.505Z,56.19
2018-09-22T00:45:35.471Z,55.74
2018-09-22T00:48:06.523Z,56.53
2018-09-22T00:50:37.476Z,56.87
2018-09-22T00:53:08.908Z,56.65
2018-09-22T00:55:39.773Z,56.42
2018-09-22T00:58:10.604Z,56.03
2018-09-22T01:00:41.515Z,56.00
2018-09-22T01:03:12.490Z,56.30
2018-09-22T01:05:43.505Z,56.43
2018-09-22T01:08:14.468Z,56.59
2018-09-22T01:10:45.481Z,56.13
2018-09-22T01:13:16.557Z,55.80
2018-09-22T01:15:50.493Z,56.34
2018-09-22T01:18:21.444Z,56.04
2018-09-22T01:20:52.437Z,56.01
2018-09-22T01:23:23.484Z,56.27
2018-09-22T01:25:54.428Z,56.02
2018-09-22T01:28:25.478Z,56.25
2018-09-22T01:30:56.457Z,55.68
2018-09-22T01:33:27.453Z,56.11
2018-09-22T01:35:58.481Z,56.09
2018-09-22T01:38:29.456Z,56.11
2018-09-22T01:41:00.446Z,55.90
2018-09-22T01:43:31.457Z,56.11
2018-09-22T01:46:02.425Z,56.30
2018-09-22T01:48:33.449Z,56.11
2018-09-22T01:51:04.500Z,56.53
2018-09-22T01:53:35.459Z,56.90
2018-09-22T01:56:06.457Z,56.35
2018-09-22T01:58:37.436Z,56.53
2018-09-22T02:01:08.445Z,56.39
2018-09-22T02:03:39.437Z,56.13
2018-09-22T02:06:10.421Z,56.44
2018-09-22T02:08:41.433Z,56.26
2018-09-22T02:11:12.400Z,56.80
2018-09-22T02:13:43.499Z,56.43
2018-09-22T02:16:14.442Z,56.93
2018-09-22T02:18:45.436Z,56.97
2018-09-22T02:21:16.433Z,56.94
2018-09-22T02:23:47.481Z,57.23
2018-09-22T02:26:18.429Z,57.32
2018-09-22T02:28:49.449Z,57.18
2018-09-22T02:31:20.455Z,56.86
2018-09-22T02:33:51.460Z,57.06
2018-09-22T02:36:22.453Z,57.78
2018-09-22T02:38:53.441Z,57.31
2018-09-22T02:41:24.411Z,57.02
2018-09-22T02:43:55.513Z,57.72
2018-09-22T02:46:26.434Z,57.47
2018-09-22T02:48:57.436Z,56.83
2018-09-22T02:51:28.448Z,57.75
2018-09-22T02:53:59.444Z,56.89
2018-09-22T02:56:30.471Z,56.72
2018-09-22T02:59:01.457Z,57.53
2018-09-22T03:01:32.426Z,57.12
2018-09-22T03:04:03.733Z,57.60
2018-09-22T03:06:34.551Z,57.21
2018-09-22T03:09:07.652Z,57.03
2018-09-22T03:11:38.466Z,57.47
2018-09-22T03:14:10.014Z,57.49
2018-09-22T03:16:41.550Z,56.96
2018-09-22T03:19:12.463Z,56.77
2018-09-22T03:21:43.463Z,57.48
2018-09-22T03:24:14.474Z,57.19
2018-09-22T03:26:45.461Z,57.44
2018-09-22T03:29:16.417Z,57.25
2018-09-22T03:31:47.436Z,57.14
2018-09-22T03:34:18.466Z,57.62
2018-09-22T03:39:33.355Z,57.88
2018-09-22T03:42:04.336Z,57.82
2018-09-22T03:44:35.390Z,57.42
2018-09-22T03:47:06.655Z,58.13
2018-09-22T03:49:37.477Z,57.48
2018-09-22T03:52:08.457Z,58.14
2018-09-22T03:54:39.450Z,58.11
2018-09-22T03:57:11.508Z,58.14
2018-09-22T03:59:42.449Z,58.39
2018-09-22T04:02:13.421Z,58.58
2018-09-22T04:04:44.400Z,58.32
2018-09-22T04:07:15.405Z,58.24
2018-09-22T04:09:46.409Z,58.79
2018-09-22T04:12:17.417Z,58.36
2018-09-22T04:14:48.446Z,58.30
2018-09-22T04:17:19.476Z,58.46
2018-09-22T04:19:50.441Z,58.93
2018-09-22T04:22:21.461Z,58.17
2018-09-22T04:24:52.481Z,58.74
2018-09-22T04:27:23.434Z,59.06
2018-09-22T04:29:54.444Z,59.09
2018-09-22T04:32:25.462Z,59.05
2018-09-22T04:34:59.293Z,59.43
2018-09-22T04:37:30.345Z,58.74
2018-09-22T04:40:01.382Z,58.83
2018-09-22T04:42:32.417Z,59.72
2018-09-22T04:45:03.441Z,59.14
2018-09-22T04:47:34.464Z,59.18
2018-09-22T04:52:45.465Z,59.59
2018-09-22T04:55:16.461Z,60.12
2018-09-22T04:57:47.445Z,59.91
2018-09-22T05:00:18.465Z,60.17
2018-09-22T05:02:49.468Z,59.70
2018-09-22T05:05:20.461Z,59.72
2018-09-22T05:07:51.472Z,60.89
2018-09-22T05:10:22.449Z,60.59
2018-09-22T05:12:53.443Z,60.53
2018-09-22T05:15:24.469Z,60.44
2018-09-22T05:17:55.410Z,61.17
2018-09-22T05:20:26.450Z,60.95
2018-09-22T05:22:57.439Z,60.82
2018-09-22T05:25:28.422Z,61.13
2018-09-22T05:27:59.460Z,61.09
2018-09-22T05:30:30.480Z,61.21
2018-09-22T05:33:01.460Z,61.49
2018-09-22T05:35:32.483Z,61.48
2018-09-22T05:38:03.444Z,61.78
2018-09-22T05:40:34.465Z,61.09
2018-09-22T05:43:05.433Z,61.67
2018-09-22T05:45:36.447Z,61.50
2018-09-22T05:48:07.477Z,61.72
2018-09-22T05:50:38.437Z,60.95
2018-09-22T05:55:52.297Z,61.41
2018-09-22T05:58:23.382Z,61.34
2018-09-22T06:00:54.465Z,61.32
2018-09-22T06:03:26.075Z,61.89
2018-09-22T06:05:57.228Z,61.57
2018-09-22T06:08:28.341Z,61.54
2018-09-22T06:10:59.311Z,60.71
2018-09-22T06:13:30.356Z,60.86
2018-09-22T06:16:01.349Z,61.23
2018-09-22T06:18:32.364Z,61.46
2018-09-22T06:21:03.469Z,61.39
2018-09-22T06:23:34.587Z,61.44
2018-09-22T06:26:05.527Z,61.01
2018-09-22T06:28:36.472Z,61.87
2018-09-22T06:31:07.507Z,61.50
2018-09-22T06:33:38.445Z,61.64
2018-09-22T06:36:09.496Z,61.04
2018-09-22T06:38:40.438Z,61.88
2018-09-22T06:41:11.417Z,62.68
2018-09-22T06:43:42.461Z,62.75
2018-09-22T06:46:13.483Z,61.55
2018-09-22T06:48:45.400Z,61.54
2018-09-22T06:51:16.436Z,61.54
2018-09-22T06:53:47.646Z,62.59
2018-09-22T06:56:18.577Z,62.68
2018-09-22T06:58:49.509Z,62.10
2018-09-22T07:01:20.608Z,62.38
2018-09-22T07:03:51.645Z,62.05
2018-09-22T07:06:22.630Z,62.38
2018-09-22T07:08:53.509Z,62.18
2018-09-22T07:11:24.484Z,61.63
2018-09-22T07:13:55.580Z,62.11
2018-09-22T07:16:26.494Z,61.85
2018-09-22T07:18:57.452Z,61.56
2018-09-22T07:21:33.523Z,62.22
2018-09-22T07:24:04.525Z,61.93
2018-09-22T07:26:35.663Z,61.68
2018-09-22T07:29:06.587Z,60.83
2018-09-22T07:31:37.497Z,62.03
2018-09-22T07:34:08.497Z,62.07
2018-09-22T07:36:39.473Z,61.68
2018-09-22T07:39:12.578Z,61.17
2018-09-22T07:41:46.777Z,61.89
2018-09-22T07:44:17.633Z,60.44
2018-09-22T07:46:48.626Z,61.51
2018-09-22T07:49:19.542Z,61.18
2018-09-22T07:51:50.569Z,60.65
2018-09-22T07:54:21.521Z,60.72
2018-09-22T07:56:52.482Z,60.51
2018-09-22T07:59:23.470Z,59.86
2018-09-22T08:01:54.515Z,59.48
2018-09-22T08:04:25.464Z,59.58
2018-09-22T08:06:56.518Z,58.32
2018-09-22T08:09:27.528Z,58.11
2018-09-22T08:11:58.514Z,57.03
2018-09-22T08:14:29.462Z,56.48
2018-09-22T08:17:00.465Z,56.97
2018-09-22T08:19:31.458Z,56.21
2018-09-22T08:22:02.522Z,55.76
2018-09-22T08:24:33.480Z,55.08
2018-09-22T08:27:04.477Z,55.67
2018-09-22T08:29:35.517Z,53.77
2018-09-22T08:32:06.517Z,54.74
2018-09-22T08:34:37.537Z,53.18
2018-09-22T08:37:08.768Z,53.71
2018-09-22T08:39:39.456Z,54.55
2018-09-22T08:42:10.441Z,53.58
2018-09-22T08:44:41.458Z,55.08
2018-09-22T08:47:12.577Z,55.03
2018-09-22T08:49:43.552Z,53.68
2018-09-22T08:52:14.474Z,54.42
2018-09-22T08:54:45.486Z,55.05
2018-09-22T08:57:16.457Z,52.82
2018-09-22T08:59:47.461Z,51.92
2018-09-22T09:02:18.503Z,52.23
2018-09-22T09:04:49.500Z,51.01
2018-09-22T09:07:20.569Z,51.72
2018-09-22T09:09:51.476Z,51.18
2018-09-22T09:12:24.497Z,50.85
2018-09-22T09:14:55.689Z,51.06
2018-09-22T09:17:26.575Z,52.46
2018-09-22T09:19:57.510Z,50.55
2018-09-22T09:22:28.459Z,51.58
2018-09-22T09:24:59.457Z,51.75
2018-09-22T09:27:30.521Z,51.47
2018-09-22T09:30:01.538Z,50.82
2018-09-22T09:32:32.542Z,51.22
2018-09-22T09:35:03.477Z,50.93
2018-09-22T09:37:34.661Z,50.60
2018-09-22T09:40:05.558Z,50.75
2018-09-22T09:42:36.485Z,50.57
2018-09-22T09:45:07.498Z,50.22
2018-09-22T09:47:38.513Z,49.86
2018-09-22T09:50:09.457Z,51.10
2018-09-22T09:52:40.526Z,50.89
2018-09-22T09:55:11.469Z,50.76
2018-09-22T09:57:42.476Z,49.98
2018-09-22T10:00:13.494Z,50.16
2018-09-22T10:02:44.518Z,50.49
2018-09-22T10:05:15.547Z,50.94
2018-09-22T10:07:46.522Z,51.27
2018-09-22T10:10:17.543Z,50.75
2018-09-22T10:12:48.517Z,50.51
2018-09-22T10:15:19.775Z,49.92
2018-09-22T10:17:50.766Z,49.81
2018-09-22T10:20:21.627Z,49.04
2018-09-22T10:22:52.483Z,48.96
2018-09-22T10:25:23.479Z,49.63
2018-09-22T10:27:54.521Z,49.49
2018-09-22T10:30:25.537Z,48.46
2018-09-22T10:32:56.497Z,47.88
2018-09-22T10:35:27.497Z,47.41
2018-09-22T10:37:58.496Z,45.20
2018-09-22T10:40:29.501Z,45.83
2018-09-22T10:43:00.530Z,44.91
2018-09-22T10:45:31.534Z,45.22
2018-09-22T10:48:02.522Z,44.37
2018-09-22T10:50:33.522Z,45.50
2018-09-22T10:53:04.845Z,45.25
2018-09-22T10:55:35.601Z,44.99
2018-09-22T10:58:06.638Z,45.34
2018-09-22T11:00:37.621Z,45.74
2018-09-22T11:03:08.652Z,45.05
2018-09-22T11:05:39.465Z,45.28
2018-09-22T11:08:10.521Z,45.91
2018-09-22T11:10:41.480Z,46.36
2018-09-22T11:13:12.578Z,46.19
2018-09-22T11:15:43.571Z,46.27
2018-09-22T11:18:14.602Z,45.50
2018-09-22T11:20:45.488Z,45.31
2018-09-22T11:23:16.594Z,45.70
2018-09-22T11:25:47.677Z,45.76
2018-09-22T11:28:18.580Z,43.94
2018-09-22T11:30:49.479Z,42.79
2018-09-22T11:33:21.406Z,41.35
2018-09-22T11:35:52.490Z,40.50
2018-09-22T11:38:23.527Z,40.55
2018-09-22T11:40:54.501Z,39.71
2018-09-22T11:43:25.773Z,39.70
2018-09-22T11:45:56.608Z,39.90
2018-09-22T11:48:27.505Z,41.06
2018-09-22T11:50:58.492Z,39.55
2018-09-22T11:53:29.516Z,39.76
2018-09-22T11:56:00.497Z,41.27
2018-09-22T11:58:31.517Z,41.97
2018-09-22T12:01:02.490Z,41.61
2018-09-22T12:03:33.523Z,42.49
2018-09-22T12:06:04.589Z,42.15
2018-09-22T12:08:35.534Z,40.32
2018-09-22T12:11:06.542Z,40.99
2018-09-22T12:13:37.503Z,40.49
2018-09-22T12:16:08.568Z,41.58
2018-09-22T12:18:39.530Z,41.44
2018-09-22T12:21:10.510Z,41.70
2018-09-22T12:23:41.524Z,41.05
2018-09-22T12:26:12.477Z,39.88
2018-09-22T12:28:43.457Z,40.39
2018-09-22T12:31:14.503Z,40.61
2018-09-22T12:33:45.522Z,40.41
2018-09-22T12:36:16.490Z,40.62
2018-09-22T12:38:48.293Z,40.73
2018-09-22T12:41:19.361Z,39.97
2018-09-22T12:43:50.362Z,40.19
2018-09-22T12:46:21.405Z,40.09
2018-09-22T12:48:52.517Z,39.27
2018-09-22T12:51:23.691Z,39.69
2018-09-22T12:53:54.569Z,40.44
2018-09-22T12:56:25.491Z,40.78
2018-09-22T12:58:56.528Z,39.44
2018-09-22T13:01:27.517Z,39.89
2018-09-22T13:03:58.519Z,39.09
2018-09-22T13:06:29.601Z,38.29
2018-09-22T13:09:00.521Z,38.42
2018-09-22T13:11:31.498Z,38.64
2018-09-22T13:14:02.469Z,39.31
2018-09-22T13:16:33.711Z,40.29
2018-09-22T13:19:04.553Z,40.37
2018-09-22T13:21:35.479Z,39.94
2018-09-22T13:24:06.530Z,39.86
2018-09-22T13:26:37.555Z,40.82
2018-09-22T13:29:08.526Z,40.89
2018-09-22T13:31:39.488Z,40.32
2018-09-22T13:34:10.489Z,40.15
2018-09-22T13:36:41.474Z,40.33
2018-09-22T13:39:13.546Z,40.67
2018-09-22T13:41:44.471Z,39.94
2018-09-22T13:44:15.509Z,40.80
2018-09-22T13:46:46.462Z,39.31
2018-09-22T13:49:17.510Z,40.42
2018-09-22T13:51:49.401Z,41.13
2018-09-22T13:54:20.478Z,40.97
2018-09-22T13:56:51.452Z,40.03
2018-09-22T13:59:22.545Z,39.88
2018-09-22T14:01:53.494Z,40.26
2018-09-22T14:04:24.634Z,40.61
2018-09-22T14:06:55.497Z,40.79
2018-09-22T14:10:37.587Z,40.35
2018-09-22T14:13:08.846Z,40.63
2018-09-22T14:15:39.696Z,40.06
2018-09-22T14:18:10.542Z,40.13
2018-09-22T14:20:41.554Z,39.90
2018-09-22T14:23:12.514Z,39.48
2018-09-22T14:25:43.496Z,39.82
2018-09-22T14:28:14.476Z,39.84
2018-09-22T14:30:45.469Z,39.84
2018-09-22T14:33:16.440Z,39.63
2018-09-22T14:35:47.498Z,39.77
2018-09-22T14:38:18.418Z,39.32
2018-09-22T14:40:49.448Z,39.93
2018-09-22T14:43:20.512Z,39.71
2018-09-22T14:45:51.446Z,39.70
2018-09-22T14:48:22.518Z,40.26
2018-09-22T14:50:53.515Z,39.93
2018-09-22T14:53:24.481Z,39.99
2018-09-22T14:55:55.513Z,39.75
2018-09-22T14:58:26.518Z,39.50
2018-09-22T15:00:57.464Z,39.38
2018-09-22T15:03:28.500Z,39.28
2018-09-22T15:05:59.493Z,39.56
2018-09-22T15:08:30.446Z,39.41
2018-09-22T15:11:01.512Z,39.69
2018-09-22T15:13:32.464Z,39.19
2018-09-22T15:16:03.593Z,39.78
2018-09-22T15:18:34.526Z,39.85
2018-09-22T15:21:05.627Z,39.48
2018-09-22T15:23:36.594Z,40.34
2018-09-22T15:26:07.494Z,39.97
2018-09-22T15:28:38.559Z,39.46
2018-09-22T15:31:09.526Z,39.37
2018-09-22T15:33:40.515Z,39.46
2018-09-22T15:36:11.564Z,39.80
2018-09-22T15:38:42.492Z,40.00
2018-09-22T15:41:13.489Z,40.00
2018-09-22T15:43:44.477Z,39.87
2018-09-22T15:46:15.501Z,39.85
2018-09-22T15:48:46.485Z,39.84
2018-09-22T15:51:18.301Z,39.68
2018-09-22T15:53:49.364Z,39.40
2018-09-22T15:56:20.390Z,40.10
2018-09-22T15:58:51.502Z,40.14
2018-09-22T16:01:22.506Z,39.83
2018-09-22T16:03:53.453Z,40.69
2018-09-22T16:06:24.506Z,40.44
2018-09-22T16:08:55.470Z,40.67
2018-09-22T16:11:26.505Z,40.41
2018-09-22T16:13:57.491Z,39.91
2018-09-22T16:16:28.458Z,38.84
2018-09-22T16:18:59.497Z,37.55
2018-09-22T16:21:30.565Z,38.05
2018-09-22T16:24:01.678Z,37.87
2018-09-22T16:26:32.567Z,38.11
2018-09-22T16:29:03.488Z,38.27
2018-09-22T16:31:34.496Z,38.68
2018-09-22T16:34:05.469Z,38.75
2018-09-22T16:36:36.488Z,39.43
2018-09-22T16:39:09.904Z,39.74
2018-09-22T16:41:41.186Z,40.00
2018-09-22T16:44:12.362Z,40.70
2018-09-22T16:46:43.373Z,40.52
2018-09-22T16:49:14.448Z,41.54
2018-09-22T16:51:45.566Z,42.55
2018-09-22T16:54:16.492Z,43.12
2018-09-22T16:56:47.523Z,44.44
2018-09-22T16:59:18.553Z,45.90
2018-09-22T17:01:49.525Z,46.59
2018-09-22T17:04:20.518Z,48.19
2018-09-22T17:06:51.472Z,48.58
2018-09-22T17:09:22.484Z,48.29
2018-09-22T17:11:53.490Z,48.91
2018-09-22T17:14:24.504Z,49.18
2018-09-22T17:16:55.449Z,49.72
2018-09-22T17:19:26.477Z,49.46
2018-09-22T17:21:57.512Z,49.01
2018-09-22T17:24:28.474Z,49.19
2018-09-22T17:26:59.480Z,49.38
2018-09-22T17:29:30.580Z,49.23
2018-09-22T17:32:01.569Z,49.19
2018-09-22T17:34:32.521Z,49.29
2018-09-22T17:37:03.545Z,49.77
2018-09-22T17:39:34.483Z,50.05
2018-09-22T17:42:05.542Z,50.63
2018-09-22T17:44:36.512Z,52.81
2018-09-22T17:47:07.541Z,52.92
2018-09-22T17:49:38.589Z,53.40
2018-09-22T17:52:09.285Z,53.97
2018-09-22T17:54:40.345Z,55.29
2018-09-22T17:57:11.400Z,55.24
2018-09-22T17:59:42.508Z,56.45
2018-09-22T18:02:13.519Z,56.38
2018-09-22T18:04:44.496Z,57.59
2018-09-22T18:07:15.545Z,58.62
2018-09-22T18:09:46.558Z,59.50
2018-09-22T18:12:17.499Z,58.97
2018-09-22T18:14:48.531Z,59.75
2018-09-22T18:17:19.517Z,58.57
2018-09-22T18:19:50.473Z,60.05
2018-09-22T18:22:21.465Z,60.08
2018-09-22T18:24:52.462Z,59.65
2018-09-22T18:27:23.481Z,60.43
2018-09-22T18:29:54.550Z,60.39
2018-09-22T18:32:26.024Z,61.49
2018-09-22T18:34:57.346Z,61.37
2018-09-22T18:37:28.417Z,61.59
2018-09-22T18:39:59.551Z,61.75
2018-09-22T18:42:30.518Z,62.20
2018-09-22T18:45:01.499Z,61.50
2018-09-22T18:47:32.518Z,62.12
2018-09-22T18:50:03.506Z,61.84
2018-09-22T18:52:34.533Z,61.92
2018-09-22T18:55:05.609Z,62.46
2018-09-22T18:57:36.549Z,62.78
2018-09-22T19:00:07.656Z,62.34
2018-09-22T19:02:38.579Z,63.10
2018-09-22T19:05:09.493Z,62.77
2018-09-22T19:07:40.483Z,63.27
2018-09-22T19:12:30.394Z,62.41
2018-09-22T19:15:35.544Z,63.12
2018-09-22T19:18:11.034Z,62.70
2018-09-22T19:20:52.396Z,62.39
2018-09-22T19:23:27.014Z,62.73
2018-09-22T19:26:16.331Z,63.01
2018-09-22T19:28:51.015Z,63.28
2018-09-22T19:31:25.717Z,63.67
2018-09-22T19:34:01.590Z,63.52
2018-09-22T19:36:40.438Z,63.82
2018-09-22T19:39:19.821Z,63.05
2018-09-22T19:41:55.578Z,63.59
2018-09-22T19:44:30.485Z,62.78
2018-09-22T19:47:08.022Z,62.89
2018-09-22T19:49:46.054Z,64.06
2018-09-22T19:52:20.841Z,63.35
2018-09-22T19:54:51.593Z,63.08
2018-09-22T19:57:22.525Z,62.96
2018-09-22T19:59:53.453Z,62.20
2018-09-22T20:02:24.565Z,61.64
2018-09-22T20:04:55.497Z,63.76
2018-09-22T20:07:26.507Z,62.24
2018-09-22T20:09:57.503Z,60.97
2018-09-22T20:12:28.472Z,61.45
2018-09-22T20:14:59.533Z,62.03
2018-09-22T20:17:30.569Z,62.51
2018-09-22T20:20:01.488Z,60.95
2018-09-22T20:22:32.513Z,62.62
2018-09-22T20:25:03.502Z,61.51
2018-09-22T20:27:34.530Z,62.33
2018-09-22T20:30:05.546Z,61.99
2018-09-22T20:32:36.561Z,61.42
2018-09-22T20:35:07.539Z,61.44
2018-09-22T20:37:38.490Z,60.12
2018-09-22T20:40:09.489Z,60.61
2018-09-22T20:42:40.508Z,60.03
2018-09-22T20:45:11.562Z,61.69
2018-09-22T20:47:42.568Z,63.42
2018-09-22T20:50:13.514Z,64.76
2018-09-22T20:52:44.492Z,66.60
2018-09-22T20:55:15.495Z,67.20
2018-09-22T20:57:46.503Z,67.84
2018-09-22T21:00:17.498Z,68.31
2018-09-22T21:02:48.514Z,68.60
2018-09-22T21:05:19.474Z,68.57
2018-09-22T21:07:50.461Z,69.23
2018-09-22T21:10:21.488Z,68.53
2018-09-22T21:12:52.437Z,69.19
2018-09-22T21:15:23.457Z,69.00
2018-09-22T21:17:54.457Z,69.20
2018-09-22T21:20:25.501Z,70.13
2018-09-22T21:22:56.464Z,69.56
2018-09-22T21:25:27.480Z,69.93
2018-09-22T21:27:58.467Z,69.66
2018-09-22T21:30:29.481Z,69.38
2018-09-22T21:33:00.488Z,70.23
2018-09-22T21:35:31.460Z,69.93
2018-09-22T21:38:02.460Z,71.23
2018-09-22T21:40:34.223Z,70.92
2018-09-22T21:43:05.338Z,71.42
2018-09-22T21:45:36.420Z,71.54
2018-09-22T21:48:07.472Z,71.66
2018-09-22T21:50:38.481Z,71.83
2018-09-22T21:53:09.467Z,72.23
2018-09-22T21:55:40.473Z,72.41
2018-09-22T21:58:11.491Z,72.26
2018-09-22T22:00:42.477Z,70.67
2018-09-22T22:03:13.505Z,70.14
2018-09-22T22:05:44.500Z,70.86
2018-09-22T22:08:15.761Z,71.43
2018-09-22T22:10:47.346Z,71.41
2018-09-22T22:13:18.345Z,71.49
2018-09-22T22:15:49.348Z,70.80
2018-09-22T22:18:20.395Z,71.08
2018-09-22T22:20:51.485Z,70.92
2018-09-22T22:23:22.858Z,71.68
2018-09-22T22:25:53.573Z,72.52
2018-09-22T22:28:24.509Z,72.37
2018-09-22T22:30:55.445Z,71.17
2018-09-22T22:33:26.459Z,72.12
2018-09-22T22:35:57.485Z,72.42
2018-09-22T22:38:28.427Z,72.31
2018-09-22T22:40:59.519Z,72.01
2018-09-22T22:43:30.413Z,72.48
2018-09-22T22:46:01.482Z,71.92
2018-09-22T22:48:32.460Z,71.21
2018-09-22T22:51:03.453Z,70.98
2018-09-22T22:53:34.417Z,71.62
2018-09-22T22:56:05.628Z,72.10
2018-09-22T22:58:36.831Z,71.86
2018-09-22T23:01:08.716Z,71.47
2018-09-22T23:03:39.533Z,71.66
2018-09-22T23:06:10.497Z,71.29
2018-09-22T23:08:41.448Z,71.33
2018-09-22T23:11:12.456Z,72.01
2018-09-22T23:13:43.561Z,72.32
2018-09-22T23:16:14.464Z,71.23
2018-09-22T23:18:45.436Z,72.56
2018-09-22T23:21:16.478Z,71.51
2018-09-22T23:23:47.440Z,72.29
2018-09-22T23:26:18.456Z,71.80
2018-09-22T23:28:49.453Z,71.94
2018-09-22T23:31:20.490Z,72.53
2018-09-22T23:33:51.459Z,72.91
2018-09-22T23:36:22.426Z,73.24
2018-09-22T23:38:53.457Z,74.18
2018-09-22T23:41:24.517Z,74.08
2018-09-22T23:43:55.398Z,74.53
2018-09-22T23:46:26.377Z,75.66
2018-09-22T23:48:57.389Z,74.94
2018-09-22T23:51:28.465Z,73.29
2018-09-22T23:53:59.433Z,75.29
2018-09-22T23:56:30.431Z,78.21
2018-09-22T23:59:01.405Z,78.30
